createdAt,value
2018-07-19T00:02:20.592Z,4.62
2018-07-19T00:04:51.108Z,4.47
2018-07-19T00:07:21.620Z,4.47
2018-07-19T00:09:52.395Z,4.95
2018-07-19T00:12:23.332Z,4.53
2018-07-19T00:14:54.063Z,4.87
2018-07-19T00:17:24.592Z,4.75
2018-07-19T00:19:55.180Z,4.37
2018-07-19T00:22:25.536Z,4.62
2018-07-19T00:24:56.147Z,4.35
2018-07-19T00:27:26.791Z,4.15
2018-07-19T00:29:57.360Z,4.30
2018-07-19T00:32:27.755Z,4.40
2018-07-19T00:34:58.307Z,4.40
2018-07-19T00:37:28.840Z,4.08
2018-07-19T00:39:59.954Z,4.40
2018-07-19T00:42:30.353Z,4.08
2018-07-19T00:45:00.767Z,4.17
2018-07-19T00:47:31.403Z,4.05
2018-07-19T00:50:01.976Z,4.37
2018-07-19T00:52:32.624Z,4.10
2018-07-19T00:55:03.023Z,4.50
2018-07-19T00:57:33.567Z,4.40
2018-07-19T01:00:04.193Z,4.60
2018-07-19T01:02:34.610Z,4.65
2018-07-19T01:05:05.800Z,5.08
2018-07-19T01:07:36.352Z,5.15
2018-07-19T01:10:06.945Z,4.67
2018-07-19T01:12:37.457Z,4.83
2018-07-19T01:15:08.341Z,4.47
2018-07-19T01:17:38.914Z,4.55
2018-07-19T01:20:09.268Z,4.40
2018-07-19T01:22:40.063Z,4.30
2018-07-19T01:25:10.599Z,4.37
2018-07-19T01:27:41.160Z,4.25
2018-07-19T01:30:12.214Z,4.70
2018-07-19T01:32:42.754Z,4.40
2018-07-19T01:35:13.305Z,4.05
2018-07-19T01:37:44.118Z,4.58
2018-07-19T01:40:14.990Z,4.22
2018-07-19T01:42:46.180Z,3.80
2018-07-19T01:45:17.236Z,4.25
2018-07-19T01:47:47.789Z,4.05
2018-07-19T01:50:18.331Z,4.33
2018-07-19T01:52:48.513Z,4.10
2018-07-19T01:55:19.041Z,4.20
2018-07-19T01:57:49.598Z,4.70
2018-07-19T02:00:20.558Z,4.97
2018-07-19T02:02:51.104Z,4.85
2018-07-19T02:05:21.660Z,5.00
2018-07-19T02:07:51.969Z,4.75
2018-07-19T02:10:22.522Z,4.97
2018-07-19T02:12:53.159Z,4.55
2018-07-19T02:15:23.693Z,4.50
2018-07-19T02:17:54.281Z,4.53
2018-07-19T02:20:24.828Z,3.85
2018-07-19T02:22:55.375Z,4.30
2018-07-19T02:25:25.903Z,4.70
2018-07-19T02:27:56.421Z,4.28
2018-07-19T02:30:27.063Z,4.50
2018-07-19T02:32:57.719Z,4.70
2018-07-19T02:35:28.253Z,4.40
2018-07-19T02:37:58.842Z,4.92
2018-07-19T02:40:29.413Z,4.65
2018-07-19T02:42:59.927Z,4.75
2018-07-19T02:45:30.443Z,4.33
2018-07-19T02:48:00.779Z,4.60
2018-07-19T02:50:31.351Z,4.78
2018-07-19T02:53:01.871Z,5.00
2018-07-19T02:55:32.425Z,5.22
2018-07-19T02:58:03.009Z,5.10
2018-07-19T03:00:33.561Z,4.70
2018-07-19T03:03:04.157Z,5.55
2018-07-19T03:05:35.007Z,5.35
2018-07-19T03:08:06.029Z,4.70
2018-07-19T03:10:36.055Z,5.30
2018-07-19T03:13:06.093Z,4.77
2018-07-19T03:15:35.891Z,5.30
2018-07-19T03:18:05.968Z,5.33
2018-07-19T03:20:36.029Z,6.03
2018-07-19T03:23:05.999Z,5.60
2018-07-19T03:25:36.177Z,5.90
2018-07-19T03:28:06.383Z,5.67
2018-07-19T03:30:36.719Z,5.53
2018-07-19T03:33:07.083Z,5.27
2018-07-19T03:35:36.873Z,5.80
2018-07-19T03:38:06.941Z,6.20
2018-07-19T03:40:36.975Z,6.40
2018-07-19T03:43:07.071Z,5.80
2018-07-19T03:45:37.107Z,5.83
2018-07-19T03:48:07.473Z,6.00
2018-07-19T03:50:37.865Z,5.80
2018-07-19T03:53:07.951Z,5.70
2018-07-19T03:55:37.999Z,6.57
2018-07-19T03:58:07.877Z,6.50
2018-07-19T04:00:38.468Z,5.90
2018-07-19T04:03:08.688Z,5.67
2018-07-19T04:05:38.638Z,5.57
2018-07-19T04:08:08.656Z,5.77
2018-07-19T04:10:38.688Z,5.40
2018-07-19T04:13:08.739Z,5.53
2018-07-19T04:15:38.729Z,5.08
2018-07-19T04:18:08.533Z,5.05
2018-07-19T04:20:39.069Z,5.30
2018-07-19T04:23:09.439Z,5.20
2018-07-19T04:25:39.480Z,4.80
2018-07-19T04:28:10.017Z,5.05
2018-07-19T04:30:41.065Z,5.40
2018-07-19T04:33:11.947Z,5.53
2018-07-19T04:35:42.785Z,5.40
2018-07-19T04:38:13.402Z,5.50
2018-07-19T04:40:43.919Z,5.50
2018-07-19T04:43:14.549Z,5.30
2018-07-19T04:45:45.139Z,5.55
2018-07-19T04:48:15.733Z,5.17
2018-07-19T04:50:46.233Z,4.95
2018-07-19T04:53:16.806Z,4.60
2018-07-19T04:55:47.335Z,4.30
2018-07-19T04:58:18.297Z,4.12
2018-07-19T05:00:48.866Z,4.60
2018-07-19T05:03:19.144Z,4.00
2018-07-19T05:05:50.693Z,4.80
2018-07-19T05:08:20.753Z,4.80
2018-07-19T05:10:51.035Z,5.33
2018-07-19T05:13:21.287Z,5.70
2018-07-19T05:15:51.566Z,5.27
2018-07-19T05:18:21.804Z,5.60
2018-07-19T05:20:52.191Z,5.27
2018-07-19T05:23:22.823Z,5.50
2018-07-19T05:25:53.115Z,5.40
2018-07-19T05:28:23.779Z,5.40
2018-07-19T05:30:54.001Z,5.50
2018-07-19T05:33:24.638Z,16.87
2018-07-19T05:35:54.996Z,6.17
2018-07-19T05:38:25.084Z,6.27
2018-07-19T05:40:55.954Z,6.25
2018-07-19T05:43:26.479Z,6.10
2018-07-19T05:45:57.066Z,6.45
2018-07-19T05:48:28.229Z,6.12
2018-07-19T05:50:59.076Z,6.62
2018-07-19T05:53:29.604Z,6.15
2018-07-19T05:56:00.076Z,6.78
2018-07-19T05:58:30.588Z,6.70
2018-07-19T06:01:01.156Z,7.12
2018-07-19T06:03:31.682Z,10.45
2018-07-19T06:06:02.238Z,8.85
2018-07-19T06:08:32.742Z,8.33
2018-07-19T06:11:03.292Z,7.15
2018-07-19T06:13:33.800Z,6.92
2018-07-19T06:16:04.455Z,6.95
2018-07-19T06:18:34.986Z,6.72
2018-07-19T06:21:06.026Z,6.55
2018-07-19T06:23:36.630Z,6.25
2018-07-19T06:26:07.246Z,6.25
2018-07-19T06:28:37.848Z,5.85
2018-07-19T06:31:08.414Z,6.12
2018-07-19T06:33:39.007Z,6.03
2018-07-19T06:36:09.599Z,6.15
2018-07-19T06:38:40.166Z,6.00
2018-07-19T06:41:10.745Z,5.65
2018-07-19T06:43:41.658Z,6.25
2018-07-19T06:46:12.362Z,6.03
2018-07-19T06:48:42.964Z,6.53
2018-07-19T06:51:13.332Z,6.10
2018-07-19T06:53:43.901Z,5.80
2018-07-19T06:56:14.694Z,5.85
2018-07-19T06:58:45.718Z,6.65
2018-07-19T07:01:16.642Z,6.22
2018-07-19T07:03:46.816Z,6.50
2018-07-19T07:06:17.446Z,5.67
2018-07-19T07:08:47.990Z,6.60
2018-07-19T07:11:18.384Z,6.55
2018-07-19T07:13:49.118Z,5.80
2018-07-19T07:16:19.674Z,5.92
2018-07-19T07:18:50.218Z,7.05
2018-07-19T07:21:21.441Z,6.10
2018-07-19T07:23:51.922Z,6.30
2018-07-19T07:26:24.435Z,6.42
2018-07-19T07:28:55.080Z,6.15
2018-07-19T07:31:25.655Z,5.53
2018-07-19T07:33:56.576Z,5.03
2018-07-19T07:36:27.264Z,5.72
2018-07-19T07:38:57.873Z,5.37
2018-07-19T07:41:28.434Z,5.17
2018-07-19T07:43:59.398Z,5.62
2018-07-19T07:46:29.978Z,6.00
2018-07-19T07:49:00.573Z,5.30
2018-07-19T07:51:31.158Z,5.75
2018-07-19T07:54:01.773Z,5.40
2018-07-19T07:56:32.168Z,5.00
2018-07-19T07:59:02.884Z,4.78
2018-07-19T08:01:33.925Z,5.28
2018-07-19T08:04:05.032Z,5.03
2018-07-19T08:06:35.858Z,3.90
2018-07-19T08:09:08.775Z,3.98
2018-07-19T08:11:39.416Z,3.85
2018-07-19T08:14:10.329Z,4.60
2018-07-19T08:16:40.936Z,4.62
2018-07-19T08:19:11.310Z,5.12
2018-07-19T08:21:42.114Z,4.50
2018-07-19T08:24:12.634Z,4.03
2018-07-19T08:26:43.015Z,4.50
2018-07-19T08:29:13.357Z,4.30
2018-07-19T08:31:43.959Z,5.08
2018-07-19T08:34:14.537Z,4.67
2018-07-19T08:36:45.759Z,4.80
2018-07-19T08:39:16.354Z,4.90
2018-07-19T08:41:47.020Z,4.75
2018-07-19T08:44:17.631Z,12.33
2018-07-19T08:46:48.215Z,5.10
2018-07-19T08:49:19.103Z,4.78
2018-07-19T08:51:50.015Z,4.90
2018-07-19T08:54:20.596Z,5.00
2018-07-19T08:56:51.438Z,5.20
2018-07-19T08:59:22.053Z,4.90
2018-07-19T09:01:52.796Z,4.30
2018-07-19T09:04:23.190Z,4.97
2018-07-19T09:06:53.899Z,5.12
2018-07-19T09:09:24.484Z,4.75
2018-07-19T09:11:55.167Z,4.75
2018-07-19T09:14:25.744Z,5.72
2018-07-19T09:16:56.358Z,5.45
2018-07-19T09:19:27.228Z,4.95
2018-07-19T09:21:57.738Z,4.65
2018-07-19T09:24:28.339Z,4.83
2018-07-19T09:26:59.193Z,5.15
2018-07-19T09:29:29.807Z,5.05
2018-07-19T09:32:00.649Z,4.87
2018-07-19T09:34:31.195Z,4.37
2018-07-19T09:37:01.901Z,4.67
2018-07-19T09:39:32.594Z,5.22
2018-07-19T09:42:03.626Z,5.50
2018-07-19T09:44:34.263Z,5.08
2018-07-19T09:47:05.004Z,5.10
2018-07-19T09:49:35.511Z,4.85
2018-07-19T09:52:06.667Z,4.95
2018-07-19T09:55:02.155Z,5.40
2018-07-19T09:57:33.072Z,4.70
2018-07-19T10:00:03.375Z,5.00
2018-07-19T10:02:33.867Z,5.50
2018-07-19T10:05:04.387Z,5.35
2018-07-19T10:07:34.900Z,5.60
2018-07-19T10:10:05.709Z,5.10
2018-07-19T10:12:36.211Z,5.00
2018-07-19T10:15:06.898Z,5.33
2018-07-19T10:17:37.454Z,4.92
2018-07-19T10:20:08.267Z,5.37
2018-07-19T10:22:38.695Z,5.08
2018-07-19T10:25:09.483Z,4.97
2018-07-19T10:27:39.962Z,4.92
2018-07-19T10:30:10.533Z,4.50
2018-07-19T10:32:41.506Z,4.75
2018-07-19T10:35:12.295Z,4.78
2018-07-19T10:37:42.428Z,4.58
2018-07-19T10:40:12.995Z,5.50
2018-07-19T10:46:20.259Z,5.30
2018-07-19T10:48:50.811Z,4.78
2018-07-19T10:51:21.209Z,5.25
2018-07-19T10:53:51.544Z,4.67
2018-07-19T10:56:22.173Z,4.40
2018-07-19T10:58:52.605Z,5.00
2018-07-19T11:01:22.993Z,4.62
2018-07-19T11:03:53.279Z,4.17
2018-07-19T11:06:23.609Z,4.80
2018-07-19T11:08:54.365Z,4.80
2018-07-19T11:11:24.981Z,4.70
2018-07-19T11:13:54.997Z,4.60
2018-07-19T11:16:25.442Z,4.60
2018-07-19T11:18:55.943Z,4.72
2018-07-19T11:21:26.243Z,5.08
2018-07-19T11:23:56.619Z,4.60
2018-07-19T11:26:26.901Z,4.97
2018-07-19T11:28:56.915Z,4.67
2018-07-19T11:31:27.271Z,4.40
2018-07-19T11:33:57.529Z,4.17
2018-07-19T11:36:27.541Z,4.73
2018-07-19T11:38:57.674Z,4.30
2018-07-19T11:41:28.314Z,5.00
2018-07-19T11:43:58.524Z,4.17
2018-07-19T11:46:28.589Z,4.60
2018-07-19T11:48:58.871Z,4.70
2018-07-19T11:51:29.253Z,4.70
2018-07-19T11:53:59.257Z,4.47
2018-07-19T11:56:29.693Z,4.90
2018-07-19T11:59:00.113Z,4.58
2018-07-19T12:01:30.125Z,4.47
2018-07-19T12:04:00.451Z,4.83
2018-07-19T12:06:30.475Z,4.57
2018-07-19T12:09:00.491Z,4.30
2018-07-19T12:11:30.578Z,4.20
2018-07-19T12:14:00.615Z,4.47
2018-07-19T12:16:30.563Z,4.30
2018-07-19T12:19:00.584Z,4.17
2018-07-19T12:21:31.135Z,4.40
2018-07-19T12:24:01.450Z,3.73
2018-07-19T12:26:31.705Z,4.00
2018-07-19T12:29:01.681Z,4.60
2018-07-19T12:31:31.720Z,4.47
2018-07-19T12:34:01.938Z,4.30
2018-07-19T12:36:31.909Z,4.77
2018-07-19T12:39:01.893Z,4.67
2018-07-19T12:41:31.570Z,4.00
2018-07-19T12:44:01.535Z,4.73
2018-07-19T12:46:31.595Z,4.53
2018-07-19T12:49:01.603Z,4.13
2018-07-19T12:51:31.763Z,4.70
2018-07-19T12:54:02.069Z,4.75
2018-07-19T12:56:32.186Z,4.13
2018-07-19T12:59:02.354Z,4.80
2018-07-19T13:01:32.858Z,4.50
2018-07-19T13:04:02.865Z,4.33
2018-07-19T13:06:32.859Z,4.30
2018-07-19T13:09:02.942Z,3.83
2018-07-19T13:11:32.868Z,4.07
2018-07-19T13:14:03.722Z,3.77
2018-07-19T13:16:33.900Z,4.50
2018-07-19T13:19:04.016Z,4.40
2018-07-19T13:21:34.229Z,4.53
2018-07-19T13:24:04.582Z,4.40
2018-07-19T13:26:35.054Z,4.40
2018-07-19T13:29:05.193Z,4.40
2018-07-19T13:31:40.044Z,3.83
2018-07-19T13:34:10.082Z,3.80
2018-07-19T13:36:40.470Z,3.80
2018-07-19T13:39:11.114Z,4.10
2018-07-19T13:41:41.470Z,4.00
2018-07-19T13:44:11.774Z,4.37
2018-07-19T13:46:41.766Z,3.80
2018-07-19T13:49:11.726Z,4.00
2018-07-19T13:51:41.694Z,4.10
2018-07-19T13:54:15.304Z,3.93
2018-07-19T13:56:45.546Z,3.80
2018-07-19T13:59:16.189Z,4.30
2018-07-19T14:01:46.476Z,4.27
2018-07-19T14:04:16.460Z,4.83
2018-07-19T14:06:46.476Z,4.40
2018-07-19T14:09:16.456Z,3.93
2018-07-19T14:11:46.424Z,3.83
2018-07-19T14:14:16.386Z,3.60
2018-07-19T14:16:46.302Z,3.83
2018-07-19T14:19:16.374Z,3.90
2018-07-19T14:21:46.830Z,4.23
2018-07-19T14:24:16.850Z,3.97
2018-07-19T14:26:46.797Z,4.13
2018-07-19T14:29:16.785Z,4.03
2018-07-19T14:31:46.742Z,4.03
2018-07-19T14:34:16.763Z,4.10
2018-07-19T14:36:46.734Z,3.70
2018-07-19T14:39:17.309Z,4.27
2018-07-19T14:41:47.262Z,4.07
2018-07-19T14:44:17.222Z,4.17
2018-07-19T14:46:47.173Z,4.50
2018-07-19T14:49:17.178Z,3.90
2018-07-19T14:51:47.527Z,4.30
2018-07-19T14:54:17.498Z,4.40
2018-07-19T14:56:47.402Z,4.23
2018-07-19T14:59:18.200Z,4.37
2018-07-19T15:01:48.158Z,4.27
2018-07-19T15:04:17.854Z,4.40
2018-07-19T15:06:48.081Z,4.53
2018-07-19T15:09:18.398Z,4.40
2018-07-19T15:11:48.332Z,4.20
2018-07-19T15:14:18.566Z,4.33
2018-07-19T15:16:48.791Z,4.20
2018-07-19T15:19:18.723Z,3.90
2018-07-19T15:21:48.692Z,4.17
2018-07-19T15:24:18.622Z,4.57
2018-07-19T15:26:48.566Z,4.17
2018-07-19T15:29:18.568Z,4.00
2018-07-19T15:31:48.512Z,4.43
2018-07-19T15:34:18.529Z,3.83
2018-07-19T15:36:48.733Z,4.07
2018-07-19T15:39:18.751Z,3.77
2018-07-19T15:41:49.060Z,4.33
2018-07-19T15:44:18.760Z,3.70
2018-07-19T15:46:48.766Z,3.50
2018-07-19T15:49:19.212Z,3.77
2018-07-19T15:51:48.852Z,3.83
2018-07-19T15:54:18.828Z,4.00
2018-07-19T15:56:49.171Z,3.70
2018-07-19T15:59:19.236Z,4.23
2018-07-19T16:01:49.589Z,3.63
2018-07-19T16:04:19.612Z,3.63
2018-07-19T16:06:49.598Z,3.97
2018-07-19T16:09:19.682Z,3.90
2018-07-19T16:11:49.709Z,3.77
2018-07-19T16:14:19.737Z,3.60
2018-07-19T16:16:49.730Z,3.60
2018-07-19T16:19:19.784Z,3.67
2018-07-19T16:21:49.775Z,3.97
2018-07-19T16:31:08.339Z,4.25
2018-07-19T16:33:38.327Z,4.10
2018-07-19T16:36:08.734Z,4.30
2018-07-19T16:38:38.895Z,3.90
2018-07-19T16:41:09.139Z,3.97
2018-07-19T16:43:39.159Z,3.63
2018-07-19T16:46:09.159Z,3.57
2018-07-19T16:48:39.155Z,3.90
2018-07-19T16:51:09.618Z,3.83
2018-07-19T16:53:39.694Z,3.80
2018-07-19T16:56:09.851Z,3.80
2018-07-19T16:58:39.819Z,3.73
2018-07-19T17:01:09.797Z,3.80
2018-07-19T17:03:39.821Z,3.83
2018-07-19T17:06:09.993Z,3.43
2018-07-19T17:08:40.155Z,4.13
2018-07-19T17:11:10.259Z,4.20
2018-07-19T17:13:40.345Z,3.67
2018-07-19T17:16:10.473Z,3.50
2018-07-19T17:18:40.613Z,3.93
2018-07-19T17:21:10.789Z,4.03
2018-07-19T17:23:41.047Z,3.50
2018-07-19T17:26:12.647Z,3.47
2018-07-19T17:28:42.777Z,3.47
2018-07-19T17:31:12.805Z,3.60
2018-07-19T17:33:42.978Z,3.60
2018-07-19T17:36:13.105Z,3.50
2018-07-19T17:38:43.223Z,3.73
2018-07-19T17:41:12.964Z,3.40
2018-07-19T17:43:43.005Z,3.70
2018-07-19T17:46:13.272Z,3.47
2018-07-19T17:48:43.400Z,3.50
2018-07-19T17:51:13.721Z,3.50
2018-07-19T17:53:43.943Z,3.50
2018-07-19T17:56:14.315Z,3.50
2018-07-19T17:58:44.494Z,3.77
2018-07-19T18:01:14.649Z,3.50
2018-07-19T18:03:45.213Z,3.67
2018-07-19T18:06:15.384Z,3.67
2018-07-19T18:08:45.470Z,3.60
2018-07-19T18:11:15.581Z,5.10
2018-07-19T18:13:45.984Z,4.83
2018-07-19T18:16:16.765Z,4.55
2018-07-19T18:18:46.874Z,3.93
2018-07-19T18:21:17.068Z,3.70
2018-07-19T18:23:47.141Z,3.40
2018-07-19T18:26:17.201Z,3.70
2018-07-19T18:28:47.821Z,4.00
2018-07-19T18:31:17.951Z,3.67
2018-07-19T18:33:48.088Z,3.70
2018-07-19T18:36:18.457Z,4.37
2018-07-19T18:38:48.527Z,4.37
2018-07-19T18:41:18.587Z,4.17
2018-07-19T18:43:48.690Z,3.90
2018-07-19T18:46:19.352Z,3.77
2018-07-19T18:48:49.463Z,3.87
2018-07-19T18:51:19.843Z,3.70
2018-07-19T18:53:50.281Z,3.70
2018-07-19T18:56:20.691Z,3.90
2018-07-19T18:58:51.227Z,3.65
2018-07-19T19:01:21.591Z,3.75
2018-07-19T19:03:52.316Z,3.83
2018-07-19T19:06:22.716Z,3.65
2018-07-19T19:08:53.441Z,3.83
2018-07-19T19:11:23.897Z,3.60
2018-07-19T19:13:54.440Z,3.75
2018-07-19T19:16:24.829Z,4.17
2018-07-19T19:18:55.281Z,6.80
2018-07-19T19:21:26.180Z,3.92
2018-07-19T19:23:56.801Z,4.30
2018-07-19T19:26:27.234Z,3.42
2018-07-19T19:28:57.669Z,3.42
2018-07-19T19:31:28.111Z,3.80
2018-07-19T19:33:58.507Z,3.83
2018-07-19T19:36:28.946Z,3.65
2018-07-19T19:38:59.375Z,3.65
2018-07-19T19:41:29.887Z,3.60
2018-07-19T19:44:00.368Z,3.50
2018-07-19T19:46:30.789Z,4.40
2018-07-19T19:49:01.181Z,4.30
2018-07-19T19:51:31.605Z,3.95
2018-07-19T19:54:02.059Z,3.83
2018-07-19T19:56:32.465Z,4.33
2018-07-19T19:59:02.890Z,4.28
2018-07-19T20:01:33.381Z,4.20
2018-07-19T20:04:04.116Z,4.20
2018-07-19T20:06:34.609Z,4.05
2018-07-19T20:09:12.293Z,4.17
2018-07-19T20:11:42.651Z,3.75
2018-07-19T20:14:13.118Z,4.05
2018-07-19T20:16:43.509Z,4.20
2018-07-19T20:19:14.206Z,4.03
2018-07-19T20:21:44.637Z,4.12
2018-07-19T20:24:16.797Z,3.77
2018-07-19T20:26:47.235Z,4.45
2018-07-19T20:29:17.652Z,4.10
2018-07-19T20:31:49.639Z,4.30
2018-07-19T20:34:20.564Z,4.10
2018-07-19T20:36:51.353Z,4.10
2018-07-19T20:39:21.943Z,4.17
2018-07-19T20:41:52.319Z,4.05
2018-07-19T20:44:22.776Z,3.80
2018-07-19T20:46:53.132Z,4.25
2018-07-19T20:49:23.561Z,4.25
2018-07-19T20:51:54.287Z,4.60
2018-07-19T20:54:24.757Z,4.40
2018-07-19T20:56:56.440Z,4.62
2018-07-19T20:59:27.022Z,5.17
2018-07-19T21:01:57.418Z,4.90
2018-07-19T21:04:27.919Z,6.20
2018-07-19T21:06:58.393Z,6.05
2018-07-19T21:09:30.183Z,6.62
2018-07-19T21:12:02.201Z,5.45
2018-07-19T21:14:32.633Z,5.50
2018-07-19T21:17:03.371Z,6.08
2018-07-19T21:19:33.772Z,6.55
2018-07-19T21:22:04.199Z,5.62
2018-07-19T21:24:34.778Z,5.70
2018-07-19T21:27:05.228Z,6.17
2018-07-19T21:29:35.648Z,5.75
2018-07-19T21:32:06.088Z,5.60
2018-07-19T21:34:36.534Z,5.58
2018-07-19T21:37:07.147Z,5.35
2018-07-19T21:39:37.212Z,4.97
2018-07-19T21:42:08.416Z,4.60
2018-07-19T21:44:38.828Z,4.62
2018-07-19T21:47:10.000Z,5.45
2018-07-19T21:49:40.532Z,4.67
2018-07-19T21:52:10.952Z,4.58
2018-07-19T21:54:41.465Z,4.70
2018-07-19T21:57:12.434Z,5.30
2018-07-19T21:59:42.841Z,5.55
2018-07-19T22:02:14.968Z,5.60
2018-07-19T22:04:45.430Z,5.95
2018-07-19T22:07:16.050Z,5.25
2018-07-19T22:09:46.816Z,6.00
2018-07-19T22:12:17.158Z,5.85
2018-07-19T22:14:47.518Z,5.00
2018-07-19T22:17:18.166Z,5.45
2018-07-19T22:19:48.651Z,5.50
2018-07-19T22:22:19.035Z,5.42
2018-07-19T22:24:49.873Z,5.25
2018-07-19T22:27:20.328Z,5.12
2018-07-19T22:29:52.370Z,5.42
2018-07-19T22:32:22.796Z,5.00
2018-07-19T22:34:56.538Z,4.85
2018-07-19T22:37:27.746Z,4.65
2018-07-19T22:39:58.097Z,4.87
2018-07-19T22:42:28.478Z,4.87
2018-07-19T22:44:59.934Z,5.10
2018-07-19T22:47:30.291Z,5.03
2018-07-19T22:50:03.165Z,4.97
2018-07-19T22:52:36.342Z,5.65
2018-07-19T22:55:08.974Z,5.20
2018-07-19T22:57:39.370Z,5.55
2018-07-19T23:00:13.711Z,4.87
2018-07-19T23:02:44.370Z,5.10
2018-07-19T23:05:15.060Z,4.70
2018-07-19T23:07:50.206Z,4.55
2018-07-19T23:10:20.620Z,4.70
2018-07-19T23:12:50.948Z,4.60
2018-07-19T23:15:21.332Z,5.60
2018-07-19T23:17:51.656Z,5.12
2018-07-19T23:20:22.202Z,5.10
2018-07-19T23:22:57.644Z,5.00
2018-07-19T23:25:28.022Z,4.70
2018-07-19T23:28:00.061Z,5.08
2018-07-19T23:30:32.892Z,5.10
2018-07-19T23:33:03.346Z,5.00
2018-07-19T23:36:41.535Z,4.97
2018-07-19T23:39:21.167Z,5.47
2018-07-19T23:42:00.920Z,5.15
2018-07-19T23:44:36.204Z,4.85
2018-07-19T23:47:11.018Z,4.75
2018-07-19T23:49:41.616Z,5.17
2018-07-19T23:52:12.048Z,4.72
2018-07-19T23:54:42.388Z,4.95
2018-07-19T23:57:12.780Z,4.55
2018-07-19T23:59:43.178Z,4.50
